< < Back
Terminal Aerodrome Forecast


Current Version              Previous Versions:   1  2  3  4  5  6  7  8  9  

Terminal Aerodrome Forecast

018
FTUS42 KTAE 312300
TAFABY
TAF
KABY 312320Z 0100/0124 31012KT P6SM SCT060
     FM010400 32015G20KT P6SM SCT030
     FM011400 32020G25KT P6SM SKC=



Latest METAR

488
SAUS70 KWBC 312300 RRD
MTRABY
METAR KABY 312253Z 32003KT 10SM CLR 17/07 A2990 RMK AO2 SLP123 T01720072
PNO


USA.gov is the U.S. government's official web portal to all federal, state and local government web resources and services.